Airfield :
LOGIN :

Register | Disclaimer

   EN    FR    IT 

 










Legend :    VFR   Marginal VFR   IFR   Intensive IFR   Very Intensive IFR
Visi :
Ceiling :
>= 8 km
>= 3000ft
5 to 8 km
1000 to 3000 ft
1500m to 5 km
500 to 1000 ft
800 to 1500m
200 to 500 ft
< 800m
< 200 ft
Symbols :   Thunderstorms  Fog  Heavy snow  Heavy precipitations  Wind > 20 kt
SIGMETs :     Misc.  Thunderstorms  Icing  Turbulence  Mountain Waves  Volcanic Ashes






- Airport Elevation : 465 ft
- IATA code : OMR


LROD - Oradea International

CURRENT METAR :
  • 181030Z 04006KT 350V090 CAVOK 30/15 Q1017

EXPIRED METARs :
  • 181000Z 05006KT 030V090 CAVOK 30/13 Q1017
  • 180930Z 04004KT 340V150 CAVOK 30/15 Q1017
  • 180900Z 11007KT 050V150 CAVOK 29/14 Q1018
  • 180830Z 08006KT 040V130 CAVOK 29/16 Q1018
  • 180800Z 03005KT 340V100 CAVOK 28/17 Q1018

TAF TAF LROD
Valid from the 18 at 09:00 until the 18 at 18:00 UTC


180800Z 1809/1818 03006KT CAVOK
TEMPO 1812/1816 SCT045CB



MET'MAP, your aeronautical weather chart ! - Copyright ORBIFLY December 2007 - Disclaimer

ORBIFLY MET'MAP TEAM :

Programming & Development : Alexandra Zaïnal
Concept & original design : Baudouin d'Aumeries
Assistance for programming : Marc-Olivier Méhu
Technical & hardware support : Manuel Goepfert

Contact : metmap@orbifly.com




SOURCES & CREDITS :

   NOAA